createdAt,value
2023-04-20T00:00:42.550Z,20.88
2023-04-20T00:03:11.753Z,21.58
2023-04-20T00:05:39.844Z,22.48
2023-04-20T00:08:07.379Z,23.35
2023-04-20T00:10:35.155Z,24.60
2023-04-20T00:13:03.015Z,23.73
2023-04-20T00:15:30.624Z,23.08
2023-04-20T00:17:58.264Z,26.20
2023-04-20T00:20:27.850Z,23.77
2023-04-20T00:22:55.459Z,24.55
2023-04-20T00:25:23.320Z,23.42
2023-04-20T00:27:50.905Z,23.23
2023-04-20T00:30:18.661Z,23.02
2023-04-20T00:32:46.765Z,24.48
2023-04-20T00:35:14.767Z,22.92
2023-04-20T00:37:43.816Z,25.85
2023-04-20T00:40:12.202Z,24.77
2023-04-20T00:42:39.800Z,24.65
2023-04-20T00:45:08.481Z,23.70
2023-04-20T00:47:36.828Z,22.63
2023-04-20T00:50:05.808Z,21.67
2023-04-20T00:52:33.736Z,21.25
2023-04-20T00:55:04.305Z,21.27
2023-04-20T00:57:32.833Z,22.27
2023-04-20T01:00:00.600Z,21.98
2023-04-20T01:02:28.392Z,20.50
2023-04-20T01:04:56.240Z,21.92
2023-04-20T01:07:24.182Z,21.52
2023-04-20T01:09:51.748Z,21.30
2023-04-20T01:12:20.888Z,24.02
2023-04-20T01:14:48.697Z,27.23
2023-04-20T01:17:16.722Z,27.45
2023-04-20T01:19:44.336Z,26.83
2023-04-20T01:22:16.366Z,28.00
2023-04-20T01:24:44.316Z,30.15
2023-04-20T01:27:12.108Z,28.77
2023-04-20T01:29:40.279Z,27.48
2023-04-20T01:32:08.138Z,27.48
2023-04-20T01:34:37.375Z,28.23
2023-04-20T01:37:05.850Z,26.42
2023-04-20T01:39:35.612Z,28.92
2023-04-20T01:42:03.418Z,29.80
2023-04-20T01:44:31.603Z,29.20
2023-04-20T01:46:59.958Z,25.95
2023-04-20T01:49:27.736Z,25.83
2023-04-20T01:51:55.410Z,29.05
2023-04-20T01:54:23.128Z,27.20
2023-04-20T01:56:52.169Z,26.70
2023-04-20T01:59:20.172Z,29.13
2023-04-20T02:01:47.779Z,28.33
2023-04-20T02:04:15.829Z,29.10
2023-04-20T02:06:43.579Z,31.80
2023-04-20T02:09:11.268Z,32.05
2023-04-20T02:11:38.868Z,30.38
2023-04-20T02:14:08.165Z,29.13
2023-04-20T02:16:37.122Z,30.40
2023-04-20T02:19:04.717Z,30.75
2023-04-20T02:21:33.069Z,29.40
2023-04-20T02:24:00.849Z,33.40
2023-04-20T02:26:28.367Z,33.17
2023-04-20T02:28:56.211Z,33.60
2023-04-20T02:31:25.317Z,34.75
2023-04-20T02:33:53.000Z,34.92
2023-04-20T02:36:20.871Z,32.50
2023-04-20T02:38:48.413Z,31.90
2023-04-20T02:41:16.089Z,31.98
2023-04-20T02:43:44.051Z,35.00
2023-04-20T02:46:11.592Z,31.90
2023-04-20T02:48:40.536Z,32.60
2023-04-20T02:51:08.325Z,32.08
2023-04-20T02:53:36.168Z,33.95
2023-04-20T02:56:04.308Z,31.92
2023-04-20T02:58:32.014Z,32.97
2023-04-20T03:01:00.187Z,33.40
2023-04-20T03:03:28.192Z,36.15
2023-04-20T03:05:57.314Z,31.88
2023-04-20T03:08:25.184Z,34.60
2023-04-20T03:10:52.914Z,34.92
2023-04-20T03:13:20.685Z,34.83
2023-04-20T03:15:48.561Z,33.97
2023-04-20T03:18:16.101Z,30.30
2023-04-20T03:20:43.813Z,29.10
2023-04-20T03:23:13.242Z,28.23
2023-04-20T03:25:40.896Z,28.30
2023-04-20T03:28:08.470Z,28.65
2023-04-20T03:30:36.322Z,29.80
2023-04-20T03:33:04.284Z,29.90
2023-04-20T03:35:32.327Z,31.60
2023-04-20T03:38:00.566Z,30.55
2023-04-20T03:40:29.519Z,29.95
2023-04-20T03:42:57.341Z,30.05
2023-04-20T03:45:25.451Z,31.25
2023-04-20T03:47:53.266Z,31.45
2023-04-20T03:50:20.967Z,32.85
2023-04-20T03:52:48.570Z,31.48
2023-04-20T03:55:16.516Z,34.05
2023-04-20T03:57:45.542Z,31.63
2023-04-20T04:00:14.172Z,33.45
2023-04-20T04:02:42.258Z,32.85
2023-04-20T04:05:10.069Z,35.70
2023-04-20T04:07:37.988Z,34.95
2023-04-20T04:10:06.814Z,33.85
2023-04-20T04:12:34.622Z,37.90
2023-04-20T04:15:04.215Z,36.17
2023-04-20T04:17:32.011Z,36.38
2023-04-20T04:19:59.752Z,37.42
2023-04-20T04:22:29.300Z,36.85
2023-04-20T04:24:58.043Z,36.63
2023-04-20T04:27:25.932Z,36.00
2023-04-20T04:29:53.601Z,35.10
2023-04-20T04:32:22.813Z,35.60
2023-04-20T04:34:50.460Z,36.75
2023-04-20T04:37:18.317Z,36.30
2023-04-20T04:39:45.884Z,37.03
2023-04-20T04:42:13.608Z,37.35
2023-04-20T04:44:41.942Z,38.97
2023-04-20T04:47:09.484Z,37.60
2023-04-20T04:49:38.755Z,39.05
2023-04-20T04:52:06.437Z,37.33
2023-04-20T04:54:34.303Z,41.50
2023-04-20T04:57:01.996Z,49.60
2023-04-20T04:59:29.925Z,47.88
2023-04-20T05:01:57.600Z,38.75
2023-04-20T05:04:25.431Z,34.63
2023-04-20T05:06:54.736Z,34.42
2023-04-20T05:09:22.399Z,35.63
2023-04-20T05:11:50.071Z,38.55
2023-04-20T05:14:17.811Z,40.92
2023-04-20T05:16:45.642Z,38.90
2023-04-20T05:19:13.248Z,42.90
2023-04-20T05:21:41.000Z,41.83
2023-04-20T05:24:10.127Z,43.92
2023-04-20T05:26:37.884Z,42.53
2023-04-20T05:29:05.464Z,40.42
2023-04-20T05:31:33.817Z,38.50
2023-04-20T05:34:01.385Z,43.25
2023-04-20T05:36:29.340Z,41.85
2023-04-20T05:38:57.041Z,39.05
2023-04-20T05:41:26.202Z,42.80
2023-04-20T05:43:54.189Z,41.20
2023-04-20T05:46:21.915Z,41.95
2023-04-20T05:48:49.818Z,44.15
2023-04-20T05:51:17.649Z,46.10
2023-04-20T05:53:45.282Z,39.63
2023-04-20T05:56:13.134Z,45.10
2023-04-20T05:58:42.183Z,45.40
2023-04-20T06:01:09.961Z,47.35
2023-04-20T06:03:38.064Z,46.28
2023-04-20T06:06:06.334Z,48.13
2023-04-20T06:08:35.442Z,44.47
2023-04-20T06:11:03.151Z,41.05
2023-04-20T06:13:31.493Z,39.15
2023-04-20T06:16:00.504Z,35.25
2023-04-20T06:18:28.889Z,29.27
2023-04-20T06:20:56.591Z,28.88
2023-04-20T06:23:24.275Z,30.90
2023-04-20T06:25:51.836Z,27.75
2023-04-20T06:28:19.785Z,29.95
2023-04-20T06:30:47.469Z,27.17
2023-04-20T06:33:16.425Z,27.77
2023-04-20T06:35:44.174Z,26.50
2023-04-20T06:38:12.077Z,29.80
2023-04-20T06:40:39.667Z,28.00
2023-04-20T06:43:07.256Z,28.27
2023-04-20T06:45:35.032Z,28.83
2023-04-20T06:48:02.743Z,34.47
2023-04-20T06:50:32.424Z,43.53
2023-04-20T06:53:00.167Z,31.77
2023-04-20T06:55:27.918Z,32.50
2023-04-20T06:57:55.643Z,31.88
2023-04-20T07:00:23.609Z,29.38
2023-04-20T07:02:51.631Z,30.80
2023-04-20T07:05:19.362Z,27.77
2023-04-20T07:07:48.652Z,23.83
2023-04-20T07:10:16.552Z,25.33
2023-04-20T07:12:45.278Z,24.73
2023-04-20T07:15:13.330Z,24.60
2023-04-20T07:17:41.173Z,22.50
2023-04-20T07:20:09.703Z,23.55
2023-04-20T07:22:38.686Z,20.27
2023-04-20T07:25:09.286Z,18.77
2023-04-20T07:27:38.257Z,18.83
2023-04-20T07:30:07.374Z,19.95
2023-04-20T07:32:35.585Z,19.70
2023-04-20T07:35:03.725Z,18.90
2023-04-20T07:37:31.833Z,19.48
2023-04-20T07:39:59.568Z,17.75
2023-04-20T07:42:29.844Z,20.80
2023-04-20T07:44:57.704Z,16.38
2023-04-20T07:47:25.482Z,17.83
2023-04-20T07:49:53.178Z,16.15
2023-04-20T07:52:20.730Z,16.60
2023-04-20T07:54:48.518Z,15.77
2023-04-20T07:57:16.174Z,12.68
2023-04-20T07:59:46.069Z,15.27
2023-04-20T08:02:13.896Z,14.63
2023-04-20T08:04:41.795Z,14.93
2023-04-20T08:07:09.710Z,15.10
2023-04-20T08:09:37.594Z,14.70
2023-04-20T08:12:05.953Z,14.40
2023-04-20T08:14:34.543Z,13.02
2023-04-20T08:17:03.553Z,16.52
2023-04-20T08:19:31.214Z,13.95
2023-04-20T08:22:00.684Z,13.70
2023-04-20T08:24:29.197Z,13.02
2023-04-20T08:26:56.923Z,12.50
2023-04-20T08:29:24.677Z,10.98
2023-04-20T08:31:52.459Z,11.13
2023-04-20T08:34:21.890Z,13.13
2023-04-20T08:36:49.839Z,12.65
2023-04-20T08:39:20.627Z,15.90
2023-04-20T08:41:49.381Z,24.55
2023-04-20T08:44:17.604Z,22.42
2023-04-20T08:46:48.111Z,13.20
2023-04-20T08:49:17.085Z,8.47
2023-04-20T08:51:47.257Z,9.63
2023-04-20T08:54:15.324Z,7.85
2023-04-20T08:56:44.880Z,8.15
2023-04-20T08:59:13.440Z,8.00
2023-04-20T09:01:42.635Z,7.95
2023-04-20T09:04:18.387Z,8.20
2023-04-20T09:06:49.663Z,8.65
2023-04-20T09:09:17.372Z,7.83
2023-04-20T09:11:45.612Z,9.02
2023-04-20T09:14:15.110Z,7.80
2023-04-20T09:16:49.452Z,7.47
2023-04-20T09:19:22.096Z,7.88
2023-04-20T09:21:52.344Z,8.23
2023-04-20T09:24:21.124Z,9.13
2023-04-20T09:26:49.142Z,9.05
2023-04-20T09:29:17.682Z,9.57
2023-04-20T09:31:45.676Z,28.85
2023-04-20T09:34:13.638Z,9.95
2023-04-20T09:36:43.043Z,8.82
2023-04-20T09:39:13.710Z,9.13
2023-04-20T09:41:42.337Z,9.60
2023-04-20T09:44:11.376Z,8.57
2023-04-20T09:46:41.206Z,8.52
2023-04-20T09:49:10.812Z,9.00
2023-04-20T09:51:40.341Z,8.38
2023-04-20T09:54:08.662Z,8.27
2023-04-20T09:56:39.574Z,9.52
2023-04-20T09:59:07.483Z,10.57
2023-04-20T10:01:36.049Z,9.65
2023-04-20T10:04:09.069Z,9.02
2023-04-20T10:06:37.773Z,9.45
2023-04-20T10:09:07.122Z,9.65
2023-04-20T10:11:49.756Z,12.85
2023-04-20T10:14:21.724Z,14.45
2023-04-20T10:17:00.386Z,13.00
2023-04-20T10:19:37.440Z,18.17
2023-04-20T10:22:05.706Z,11.20
2023-04-20T10:24:33.839Z,11.10
2023-04-20T10:27:02.874Z,9.80
2023-04-20T10:29:30.823Z,11.63
2023-04-20T10:31:59.266Z,9.93
2023-04-20T10:34:30.971Z,10.77
2023-04-20T10:37:08.137Z,9.85
2023-04-20T10:39:36.511Z,8.55
2023-04-20T10:42:05.615Z,9.25
2023-04-20T10:44:33.260Z,9.10
2023-04-20T10:47:01.413Z,8.00
2023-04-20T10:49:31.203Z,8.00
2023-04-20T10:51:58.858Z,8.35
2023-04-20T10:54:26.995Z,8.57
2023-04-20T10:56:54.675Z,8.48
2023-04-20T10:59:24.871Z,10.20
2023-04-20T11:01:52.857Z,15.70
2023-04-20T11:04:30.015Z,11.65
2023-04-20T11:07:05.280Z,9.30
2023-04-20T11:09:33.722Z,8.75
2023-04-20T11:12:03.032Z,9.52
2023-04-20T11:14:33.527Z,8.00
2023-04-20T11:17:01.863Z,7.63
2023-04-20T11:19:31.331Z,7.28
2023-04-20T11:21:59.288Z,8.45
2023-04-20T11:24:28.973Z,8.45
2023-04-20T11:26:57.340Z,10.57
2023-04-20T11:29:29.808Z,8.32
2023-04-20T11:32:01.649Z,8.82
2023-04-20T11:34:34.071Z,11.60
2023-04-20T11:37:04.830Z,14.95
2023-04-20T11:39:32.983Z,11.20
2023-04-20T11:42:00.575Z,9.48
2023-04-20T11:44:28.255Z,9.82
2023-04-20T11:46:56.606Z,11.07
2023-04-20T11:49:27.376Z,9.23
2023-04-20T11:51:55.393Z,9.53
2023-04-20T11:54:23.011Z,8.60
2023-04-20T11:56:50.774Z,8.23
2023-04-20T11:59:18.875Z,10.55
2023-04-20T12:01:46.750Z,9.98
2023-04-20T12:04:14.783Z,14.38
2023-04-20T12:06:44.833Z,10.38
2023-04-20T12:09:12.506Z,9.48
2023-04-20T12:11:40.105Z,7.90
2023-04-20T12:14:08.110Z,8.57
2023-04-20T12:16:35.821Z,8.88
2023-04-20T12:19:03.914Z,8.23
2023-04-20T12:21:31.633Z,7.28
2023-04-20T12:24:00.973Z,6.43
2023-04-20T12:26:37.411Z,7.15
2023-04-20T12:29:06.745Z,7.82
2023-04-20T12:31:34.427Z,7.50
2023-04-20T12:34:02.096Z,6.45
2023-04-20T12:36:30.208Z,6.53
2023-04-20T12:38:57.941Z,7.97
2023-04-20T12:41:26.925Z,8.90
2023-04-20T12:43:54.982Z,6.88
2023-04-20T12:46:22.681Z,6.57
2023-04-20T12:48:50.305Z,5.80
2023-04-20T12:51:18.284Z,5.65
2023-04-20T12:53:45.868Z,8.43
2023-04-20T12:56:13.408Z,5.93
2023-04-20T12:58:42.630Z,10.07
2023-04-20T13:01:10.377Z,6.18
2023-04-20T13:03:38.278Z,5.15
2023-04-20T13:06:06.778Z,4.55
2023-04-20T13:08:35.683Z,4.22
2023-04-20T13:11:03.413Z,5.13
2023-04-20T13:13:31.001Z,4.57
2023-04-20T13:16:00.098Z,5.32
2023-04-20T13:18:28.034Z,4.80
2023-04-20T13:20:55.756Z,4.85
2023-04-20T13:23:23.796Z,4.53
2023-04-20T13:25:51.937Z,5.97
2023-04-20T13:28:20.199Z,5.97
2023-04-20T13:30:48.106Z,7.07
2023-04-20T13:33:17.602Z,5.50
2023-04-20T13:35:45.536Z,4.07
2023-04-20T13:38:13.421Z,5.80
2023-04-20T13:40:41.938Z,4.30
2023-04-20T13:43:11.160Z,4.53
2023-04-20T13:45:38.804Z,3.67
2023-04-20T13:48:06.684Z,5.80
2023-04-20T13:50:35.847Z,5.75
2023-04-20T13:53:03.787Z,5.10
2023-04-20T13:55:31.828Z,12.35
2023-04-20T13:57:59.665Z,7.28
2023-04-20T14:00:27.391Z,8.25
2023-04-20T14:02:55.199Z,7.82
2023-04-20T14:05:23.189Z,7.05
2023-04-20T14:07:52.167Z,4.90
2023-04-20T14:10:20.114Z,6.68
2023-04-20T14:12:47.765Z,5.22
2023-04-20T14:15:15.758Z,5.35
2023-04-20T14:17:43.519Z,5.45
2023-04-20T14:20:12.156Z,7.65
2023-04-20T14:22:40.010Z,5.18
2023-04-20T14:25:10.161Z,5.85
2023-04-20T14:27:37.862Z,5.95
2023-04-20T14:30:06.501Z,8.63
2023-04-20T14:32:34.985Z,8.95
2023-04-20T14:35:03.283Z,5.30
2023-04-20T14:37:33.081Z,4.15
2023-04-20T14:40:00.795Z,4.57
2023-04-20T14:42:30.110Z,5.07
2023-04-20T14:44:57.657Z,6.28
2023-04-20T14:47:25.264Z,8.65
2023-04-20T14:49:53.090Z,5.95
2023-04-20T14:52:20.654Z,6.55
2023-04-20T14:54:48.261Z,4.65
2023-04-20T14:57:16.181Z,5.00
2023-04-20T14:59:45.274Z,5.30
2023-04-20T15:02:12.898Z,6.97
2023-04-20T15:04:41.002Z,8.40
2023-04-20T15:07:08.748Z,7.38
2023-04-20T15:09:36.754Z,6.40
2023-04-20T15:12:04.575Z,5.13
2023-04-20T15:14:32.474Z,6.03
2023-04-20T15:17:01.587Z,6.05
2023-04-20T15:19:29.351Z,5.97
2023-04-20T15:21:57.040Z,7.13
2023-04-20T15:24:24.769Z,7.40
2023-04-20T15:26:52.348Z,6.18
2023-04-20T15:29:19.887Z,6.30
2023-04-20T15:31:47.692Z,6.75
2023-04-20T15:34:17.272Z,6.47
2023-04-20T15:36:45.682Z,6.63
2023-04-20T15:39:13.378Z,6.20
2023-04-20T15:41:40.956Z,6.13
2023-04-20T15:44:08.621Z,7.00
2023-04-20T15:46:37.710Z,6.50
2023-04-20T15:49:05.341Z,6.32
2023-04-20T15:51:34.329Z,7.32
2023-04-20T15:54:02.228Z,6.22
2023-04-20T15:56:29.928Z,6.18
2023-04-20T15:58:57.492Z,6.38
2023-04-20T16:01:25.427Z,7.53
2023-04-20T16:03:53.283Z,6.57
2023-04-20T16:06:21.245Z,16.77
2023-04-20T16:08:52.203Z,29.17
2023-04-20T16:11:19.926Z,16.77
2023-04-20T16:13:47.629Z,15.48
2023-04-20T16:16:15.769Z,16.42
2023-04-20T16:18:43.354Z,22.73
2023-04-20T16:21:10.925Z,18.13
2023-04-20T16:23:39.076Z,11.50
2023-04-20T16:26:08.038Z,10.57
2023-04-20T16:28:35.946Z,8.30
2023-04-20T16:31:03.687Z,10.50
2023-04-20T16:33:32.112Z,13.70
2023-04-20T16:36:00.043Z,14.93
2023-04-20T16:38:27.672Z,12.95
2023-04-20T16:40:55.312Z,13.40
2023-04-20T16:43:24.805Z,14.30
2023-04-20T16:45:52.591Z,12.75
2023-04-20T16:48:20.924Z,11.18
2023-04-20T16:50:48.994Z,15.40
2023-04-20T16:53:16.973Z,19.77
2023-04-20T16:55:44.620Z,15.02
2023-04-20T16:58:12.638Z,32.88
2023-04-20T17:00:42.069Z,26.27
2023-04-20T17:03:09.852Z,23.05
2023-04-20T17:05:40.382Z,13.10
2023-04-20T17:08:09.777Z,40.65
2023-04-20T17:10:37.560Z,151.77
2023-04-20T17:13:05.359Z,53.50
2023-04-20T17:15:33.613Z,31.83
2023-04-20T17:18:02.703Z,44.03
2023-04-20T17:20:30.589Z,45.67
2023-04-20T17:22:58.407Z,39.75
2023-04-20T17:25:26.123Z,84.78
2023-04-20T17:27:53.850Z,41.78
2023-04-20T17:30:21.659Z,14.05
2023-04-20T17:32:49.480Z,24.27
2023-04-20T17:35:18.589Z,48.70
2023-04-20T17:37:46.330Z,23.60
2023-04-20T17:40:13.962Z,14.85
2023-04-20T17:42:41.747Z,17.13
2023-04-20T17:45:09.984Z,21.85
2023-04-20T17:47:38.306Z,34.70
2023-04-20T17:50:07.706Z,30.35
2023-04-20T17:52:37.048Z,16.42
2023-04-20T17:55:05.427Z,20.10
2023-04-20T17:57:33.249Z,14.43
2023-04-20T18:00:00.993Z,21.38
2023-04-20T18:02:28.923Z,46.40
2023-04-20T18:04:56.782Z,43.00
2023-04-20T18:07:24.736Z,34.83
2023-04-20T18:09:54.159Z,20.48
2023-04-20T18:12:21.838Z,33.83
2023-04-20T18:14:49.938Z,31.23
2023-04-20T18:17:17.769Z,39.42
2023-04-20T18:19:45.422Z,36.88
2023-04-20T18:22:13.186Z,41.47
2023-04-20T18:24:40.893Z,29.42
2023-04-20T18:27:09.970Z,36.60
2023-04-20T18:29:37.986Z,30.42
2023-04-20T18:32:05.743Z,23.75
2023-04-20T18:34:33.409Z,15.40
2023-04-20T18:37:01.298Z,15.23
2023-04-20T18:39:29.065Z,16.27
2023-04-20T18:41:56.795Z,17.92
2023-04-20T18:44:25.968Z,19.48
2023-04-20T18:46:53.843Z,19.50
2023-04-20T18:49:21.459Z,14.05
2023-04-20T18:51:49.451Z,16.50
2023-04-20T18:54:17.365Z,35.13
2023-04-20T18:56:45.279Z,41.00
2023-04-20T18:59:13.136Z,28.05
2023-04-20T19:01:42.238Z,27.75
2023-04-20T19:04:09.956Z,22.00
2023-04-20T19:06:38.282Z,28.50
2023-04-20T19:09:08.008Z,17.58
2023-04-20T19:11:35.978Z,18.38
2023-04-20T19:14:03.759Z,27.52
2023-04-20T19:16:31.683Z,39.65
2023-04-20T19:19:00.980Z,25.05
2023-04-20T19:21:28.881Z,32.17
2023-04-20T19:23:56.662Z,59.63
2023-04-20T19:26:24.315Z,33.38
2023-04-20T19:28:52.241Z,36.08
2023-04-20T19:31:20.062Z,17.98
2023-04-20T19:33:47.709Z,18.98
2023-04-20T19:36:16.868Z,22.35
2023-04-20T19:38:44.833Z,24.20
2023-04-20T19:41:12.736Z,25.67
2023-04-20T19:43:40.317Z,27.00
2023-04-20T19:46:08.103Z,17.20
2023-04-20T19:48:35.982Z,15.38
2023-04-20T19:51:03.855Z,16.05
2023-04-20T19:53:32.986Z,13.13
2023-04-20T19:56:00.818Z,10.45
2023-04-20T19:58:28.676Z,10.80
2023-04-20T20:00:56.386Z,10.23
2023-04-20T20:03:24.241Z,10.77
2023-04-20T20:05:52.008Z,10.98
2023-04-20T20:08:19.695Z,11.40
2023-04-20T20:10:49.129Z,11.25
2023-04-20T20:13:16.892Z,13.20
2023-04-20T20:15:44.726Z,12.15
2023-04-20T20:18:12.536Z,15.70
2023-04-20T20:20:40.180Z,12.18
2023-04-20T20:23:07.899Z,11.80
2023-04-20T20:25:35.727Z,11.60
2023-04-20T20:28:05.004Z,10.80
2023-04-20T20:30:32.748Z,9.40
2023-04-20T20:33:00.665Z,11.98
2023-04-20T20:35:28.644Z,14.45
2023-04-20T20:37:56.454Z,11.38
2023-04-20T20:40:24.149Z,12.75
2023-04-20T20:42:51.974Z,10.73
2023-04-20T20:45:21.176Z,9.93
2023-04-20T20:47:48.794Z,9.90
2023-04-20T20:50:17.077Z,8.70
2023-04-20T20:52:45.049Z,23.20
2023-04-20T20:55:12.724Z,34.50
2023-04-20T20:57:40.478Z,23.17
2023-04-20T21:00:09.680Z,12.15
2023-04-20T21:02:39.525Z,8.52
2023-04-20T21:05:07.496Z,8.15
2023-04-20T21:07:36.037Z,8.98
2023-04-20T21:10:04.172Z,10.02
2023-04-20T21:12:32.133Z,11.05
2023-04-20T21:15:00.241Z,10.90
2023-04-20T21:17:27.857Z,11.25
2023-04-20T21:19:56.898Z,10.60
2023-04-20T21:22:24.772Z,11.73
2023-04-20T21:24:52.493Z,11.40
2023-04-20T21:27:20.035Z,12.85
2023-04-20T21:29:47.698Z,12.95
2023-04-20T21:32:15.501Z,14.80
2023-04-20T21:34:43.241Z,13.52
2023-04-20T21:37:12.451Z,13.95
2023-04-20T21:39:40.096Z,13.93
2023-04-20T21:42:07.732Z,13.63
2023-04-20T21:44:35.701Z,13.63
2023-04-20T21:47:03.402Z,13.27
2023-04-20T21:49:31.606Z,12.23
2023-04-20T21:51:59.391Z,11.77
2023-04-20T21:54:28.388Z,11.15
2023-04-20T21:56:56.182Z,10.85
2023-04-20T21:59:23.904Z,10.63
2023-04-20T22:01:51.508Z,10.57
2023-04-20T22:04:19.586Z,10.63
2023-04-20T22:06:47.657Z,10.80
2023-04-20T22:09:15.210Z,10.63
2023-04-20T22:11:44.275Z,10.77
2023-04-20T22:14:11.964Z,10.38
2023-04-20T22:16:39.635Z,10.32
2023-04-20T22:19:07.347Z,11.32
2023-04-20T22:21:35.302Z,14.50
2023-04-20T22:24:03.180Z,12.75
2023-04-20T22:26:31.280Z,13.85
2023-04-20T22:29:00.499Z,15.23
2023-04-20T22:31:28.123Z,14.25
2023-04-20T22:33:55.865Z,13.32
2023-04-20T22:36:23.579Z,12.43
2023-04-20T22:38:51.316Z,13.25
2023-04-20T22:41:18.931Z,15.15
2023-04-20T22:43:46.583Z,13.57
2023-04-20T22:46:15.893Z,11.35
2023-04-20T22:48:43.463Z,8.50
2023-04-20T22:51:11.006Z,8.00
2023-04-20T22:53:38.692Z,9.27
2023-04-20T22:56:07.513Z,8.50
2023-04-20T22:58:35.650Z,7.78
2023-04-20T23:01:03.478Z,8.35
2023-04-20T23:03:32.805Z,7.75
2023-04-20T23:06:00.467Z,7.25
2023-04-20T23:08:32.116Z,7.18
2023-04-20T23:10:59.834Z,6.03
2023-04-20T23:13:27.484Z,6.68
2023-04-20T23:15:55.275Z,6.95
2023-04-20T23:18:23.102Z,8.55
2023-04-20T23:20:52.054Z,8.57
2023-04-20T23:23:19.792Z,7.68
2023-04-20T23:25:47.644Z,7.72
2023-04-20T23:28:15.282Z,7.72
2023-04-20T23:30:42.831Z,8.75
2023-04-20T23:33:10.713Z,9.75
2023-04-20T23:35:38.401Z,11.98
2023-04-20T23:38:07.532Z,11.82
2023-04-20T23:40:35.799Z,9.60
2023-04-20T23:43:03.590Z,12.80
2023-04-20T23:45:31.264Z,13.32
2023-04-20T23:47:58.924Z,12.73
2023-04-20T23:50:26.689Z,15.70
2023-04-20T23:52:54.415Z,14.85
2023-04-20T23:55:23.669Z,12.00
2023-04-20T23:57:51.393Z,10.13
